Lake Noji, Indiana
Current Conditions -  °F | °C
As of 4:11 PM on Friday 24 Oct 2014 (Local Time) from KHUF Reporting Station
Few Clouds Few Clouds  
Wind Chill: 67°   Ceiling: Unl
Heat Index: 67°   Visibility: 10mi
Dew Point: 53°   Wind: 6mph
Humidity: 61%   Direction: 230°SW
Pressure: 30.03"   Gusts: NA
Location:  39.3587°N, 87.4056°W
Report Text: KHUF 242011Z 23005KT 10SM FEW036 19/12 A3003 RMK AO2 T01940117
Loading
Personal Weather Stations






























Interactive Weather Map
Tropical Storm Tracking
New forecast layout! Learn more

10-Day Weather Forecast

Advertisements
Track Severe Weather on mobile